createdAt,value
2022-11-22T00:00:46.675Z,10.70
2022-11-22T00:03:13.457Z,10.48
2022-11-22T00:05:40.483Z,10.44
2022-11-22T00:08:08.157Z,10.46
2022-11-22T00:10:38.075Z,10.39
2022-11-22T00:13:05.449Z,10.26
2022-11-22T00:15:32.178Z,10.15
2022-11-22T00:17:58.901Z,10.21
2022-11-22T00:20:26.464Z,10.23
2022-11-22T00:22:53.303Z,10.27
2022-11-22T00:25:20.068Z,10.03
2022-11-22T00:27:46.947Z,10.22
2022-11-22T00:30:14.303Z,10.40
2022-11-22T00:32:41.023Z,10.00
2022-11-22T00:35:08.161Z,10.28
2022-11-22T00:37:35.082Z,10.36
2022-11-22T00:40:02.570Z,10.25
2022-11-22T00:42:29.485Z,9.60
2022-11-22T00:44:56.524Z,9.93
2022-11-22T00:47:23.373Z,9.66
2022-11-22T00:49:51.050Z,9.81
2022-11-22T00:52:17.901Z,9.64
2022-11-22T00:54:48.828Z,10.04
2022-11-22T00:57:20.054Z,10.11
2022-11-22T00:59:47.016Z,9.52
2022-11-22T01:02:13.943Z,9.57
2022-11-22T01:04:40.804Z,9.45
2022-11-22T01:07:07.796Z,9.57
2022-11-22T01:09:34.694Z,9.74
2022-11-22T01:12:01.443Z,9.80
2022-11-22T01:14:28.178Z,9.26
2022-11-22T01:16:54.947Z,9.75
2022-11-22T01:19:21.774Z,9.40
2022-11-22T01:21:48.708Z,9.59
2022-11-22T01:24:15.468Z,9.63
2022-11-22T01:26:42.600Z,9.65
2022-11-22T01:29:10.178Z,9.34
2022-11-22T01:31:37.014Z,9.52
2022-11-22T01:34:05.559Z,9.91
2022-11-22T01:36:32.555Z,9.75
2022-11-22T01:38:59.261Z,9.75
2022-11-22T01:41:26.066Z,9.30
2022-11-22T01:43:52.988Z,9.53
2022-11-22T01:46:35.265Z,10.04
2022-11-22T01:49:09.605Z,9.81
2022-11-22T01:51:39.908Z,9.57
2022-11-22T01:54:10.204Z,9.45
2022-11-22T01:56:37.711Z,9.36
2022-11-22T01:59:08.947Z,9.32
2022-11-22T02:01:36.527Z,9.50
2022-11-22T02:04:04.371Z,9.17
2022-11-22T02:07:06.359Z,9.33
2022-11-22T02:09:34.541Z,9.36
2022-11-22T02:12:02.997Z,9.14
2022-11-22T02:14:30.485Z,9.17
2022-11-22T02:16:57.331Z,9.07
2022-11-22T02:19:36.860Z,9.53
2022-11-22T02:22:13.048Z,9.55
2022-11-22T02:24:45.288Z,9.50
2022-11-22T02:27:12.110Z,9.76
2022-11-22T02:29:39.065Z,9.26
2022-11-22T02:32:05.920Z,9.43
2022-11-22T02:34:42.679Z,9.50
2022-11-22T02:37:11.077Z,9.40
2022-11-22T02:39:38.547Z,9.14
2022-11-22T02:42:05.765Z,9.28
2022-11-22T02:44:32.544Z,9.51
2022-11-22T02:46:59.449Z,9.26
2022-11-22T02:49:27.359Z,9.53
2022-11-22T02:51:54.206Z,9.51
2022-11-22T02:54:21.420Z,9.11
2022-11-22T02:56:48.428Z,9.75
2022-11-22T02:59:15.649Z,9.69
2022-11-22T03:01:43.643Z,9.16
2022-11-22T03:04:10.585Z,9.10
2022-11-22T03:06:37.372Z,9.40
2022-11-22T03:09:04.268Z,9.35
2022-11-22T03:11:31.011Z,9.49
2022-11-22T03:13:58.009Z,9.29
2022-11-22T03:16:24.842Z,9.18
2022-11-22T03:18:51.608Z,9.17
2022-11-22T03:21:18.744Z,9.16
2022-11-22T03:23:45.446Z,9.12
2022-11-22T03:26:12.599Z,8.98
2022-11-22T03:28:39.551Z,8.92
2022-11-22T03:31:07.590Z,8.99
2022-11-22T03:33:35.374Z,8.78
2022-11-22T03:36:02.655Z,8.77
2022-11-22T03:38:29.864Z,8.91
2022-11-22T03:40:56.744Z,9.10
2022-11-22T03:43:23.836Z,9.01
2022-11-22T03:45:50.664Z,8.92
2022-11-22T03:48:17.841Z,8.67
2022-11-22T03:50:44.753Z,9.03
2022-11-22T03:53:11.968Z,9.12
2022-11-22T03:55:38.950Z,9.14
2022-11-22T03:58:06.418Z,8.88
2022-11-22T04:00:34.000Z,9.28
2022-11-22T04:03:00.936Z,9.16
2022-11-22T04:05:27.958Z,9.05
2022-11-22T04:07:58.287Z,8.85
2022-11-22T04:10:25.698Z,8.67
2022-11-22T04:12:52.627Z,9.07
2022-11-22T04:15:19.388Z,9.22
2022-11-22T04:17:48.363Z,9.17
2022-11-22T04:20:47.932Z,8.64
2022-11-22T04:23:15.713Z,8.56
2022-11-22T04:25:44.818Z,8.28
2022-11-22T04:28:12.780Z,8.65
2022-11-22T04:30:58.263Z,8.59
2022-11-22T04:33:25.567Z,8.63
2022-11-22T04:35:52.945Z,8.44
2022-11-22T04:38:20.035Z,8.88
2022-11-22T04:40:47.391Z,8.90
2022-11-22T04:43:42.084Z,8.94
2022-11-22T04:46:09.255Z,8.89
2022-11-22T04:48:36.593Z,8.70
2022-11-22T04:51:22.995Z,8.90
2022-11-22T04:53:49.938Z,8.92
2022-11-22T04:56:17.162Z,8.74
2022-11-22T04:58:44.276Z,8.69
2022-11-22T05:01:11.360Z,8.83
2022-11-22T05:03:38.329Z,8.90
2022-11-22T05:06:05.795Z,8.65
2022-11-22T05:08:32.820Z,8.66
2022-11-22T05:11:00.168Z,8.80
2022-11-22T05:13:34.346Z,8.81
2022-11-22T05:16:03.180Z,8.59
2022-11-22T05:18:30.261Z,9.14
2022-11-22T05:20:58.348Z,9.09
2022-11-22T05:23:43.516Z,8.69
2022-11-22T05:26:11.249Z,9.24
2022-11-22T05:28:39.466Z,9.35
2022-11-22T05:31:14.180Z,9.18
2022-11-22T05:33:42.329Z,8.71
2022-11-22T05:36:09.717Z,8.62
2022-11-22T05:38:38.224Z,9.08
2022-11-22T05:41:06.938Z,8.88
2022-11-22T05:43:33.885Z,8.68
2022-11-22T05:46:24.320Z,8.61
2022-11-22T05:48:52.471Z,8.81
2022-11-22T05:51:22.684Z,8.63
2022-11-22T05:53:49.497Z,8.31
2022-11-22T05:56:21.084Z,8.45
2022-11-22T05:58:48.058Z,8.85
2022-11-22T06:01:19.846Z,8.57
2022-11-22T06:03:47.300Z,8.65
2022-11-22T06:06:14.570Z,8.59
2022-11-22T06:08:45.069Z,8.85
2022-11-22T06:11:17.603Z,8.80
2022-11-22T06:13:46.269Z,8.49
2022-11-22T06:16:13.388Z,8.56
2022-11-22T06:18:40.295Z,8.85
2022-11-22T06:21:10.091Z,8.70
2022-11-22T06:23:37.059Z,8.60
2022-11-22T06:26:06.709Z,8.57
2022-11-22T06:28:35.351Z,8.84
2022-11-22T06:31:03.004Z,9.02
2022-11-22T06:33:29.837Z,8.82
2022-11-22T06:36:10.120Z,9.08
2022-11-22T06:38:37.259Z,9.28
2022-11-22T06:41:06.371Z,8.98
2022-11-22T06:43:34.107Z,8.96
2022-11-22T06:46:02.194Z,8.99
2022-11-22T06:48:33.963Z,8.77
2022-11-22T06:51:01.876Z,9.15
2022-11-22T06:53:46.207Z,9.37
2022-11-22T06:56:28.976Z,8.94
2022-11-22T06:58:56.638Z,9.01
2022-11-22T07:01:25.804Z,9.21
2022-11-22T07:03:58.304Z,8.88
2022-11-22T07:06:28.371Z,8.88
2022-11-22T07:08:55.519Z,9.25
2022-11-22T07:11:24.898Z,9.00
2022-11-22T07:13:52.048Z,8.66
2022-11-22T07:16:20.533Z,8.94
2022-11-22T07:18:47.998Z,9.00
2022-11-22T07:21:23.138Z,9.56
2022-11-22T07:23:52.259Z,9.01
2022-11-22T07:26:20.939Z,9.11
2022-11-22T07:28:48.338Z,9.16
2022-11-22T07:31:16.557Z,9.30
2022-11-22T07:33:43.985Z,9.26
2022-11-22T07:36:19.248Z,9.43
2022-11-22T07:38:48.186Z,9.60
2022-11-22T07:41:15.476Z,9.23
2022-11-22T07:43:42.725Z,9.27
2022-11-22T07:46:23.104Z,9.46
2022-11-22T07:48:50.547Z,9.69
2022-11-22T07:51:17.328Z,9.71
2022-11-22T07:53:44.176Z,8.99
2022-11-22T07:56:11.159Z,9.38
2022-11-22T07:58:38.539Z,9.61
2022-11-22T08:01:07.326Z,9.31
2022-11-22T08:03:34.644Z,9.83
2022-11-22T08:06:02.375Z,9.90
2022-11-22T08:08:29.864Z,9.42
2022-11-22T08:10:56.866Z,9.40
2022-11-22T08:13:24.455Z,9.54
2022-11-22T08:15:54.409Z,9.48
2022-11-22T08:18:22.082Z,9.18
2022-11-22T08:20:48.707Z,9.32
2022-11-22T08:23:15.619Z,9.48
2022-11-22T08:25:42.296Z,9.68
2022-11-22T08:28:09.218Z,9.68
2022-11-22T08:30:35.975Z,9.46
2022-11-22T08:33:02.978Z,9.54
2022-11-22T08:35:29.674Z,9.43
2022-11-22T08:37:57.580Z,9.62
2022-11-22T08:40:24.642Z,9.83
2022-11-22T08:42:54.720Z,9.39
2022-11-22T08:45:21.514Z,9.36
2022-11-22T08:47:49.196Z,9.42
2022-11-22T08:50:17.742Z,9.67
2022-11-22T08:52:44.889Z,9.14
2022-11-22T08:55:11.600Z,9.36
2022-11-22T08:57:40.775Z,9.20
2022-11-22T09:00:10.782Z,9.25
2022-11-22T09:02:37.860Z,9.15
2022-11-22T09:05:05.423Z,9.22
2022-11-22T09:10:19.194Z,9.29
2022-11-22T09:12:47.312Z,9.50
2022-11-22T09:15:14.678Z,9.14
2022-11-22T09:17:42.333Z,9.19
2022-11-22T09:20:10.124Z,8.93
2022-11-22T09:22:36.855Z,9.06
2022-11-22T09:25:05.985Z,9.22
2022-11-22T09:27:35.077Z,9.26
2022-11-22T09:30:02.199Z,9.31
2022-11-22T09:32:33.520Z,9.40
2022-11-22T09:35:01.051Z,9.30
2022-11-22T09:37:27.669Z,9.07
2022-11-22T09:39:54.452Z,9.19
2022-11-22T09:42:37.150Z,9.51
2022-11-22T09:45:26.243Z,9.16
2022-11-22T09:48:10.655Z,9.18
2022-11-22T09:51:03.517Z,9.33
2022-11-22T09:53:37.698Z,9.50
2022-11-22T09:56:09.549Z,9.74
2022-11-22T09:58:43.178Z,9.64
2022-11-22T10:01:41.051Z,9.64
2022-11-22T10:04:16.338Z,10.15
2022-11-22T10:06:45.714Z,10.25
2022-11-22T10:09:31.434Z,10.18
2022-11-22T10:12:02.789Z,9.66
2022-11-22T10:14:38.423Z,9.98
2022-11-22T10:17:26.459Z,9.63
2022-11-22T10:19:58.683Z,10.48
2022-11-22T10:22:29.673Z,9.96
2022-11-22T10:24:58.971Z,10.10
2022-11-22T10:27:31.322Z,10.13
2022-11-22T10:30:05.121Z,10.04
2022-11-22T10:32:55.869Z,10.59
2022-11-22T10:35:29.700Z,9.97
2022-11-22T10:38:05.162Z,10.14
2022-11-22T10:40:41.151Z,10.21
2022-11-22T10:43:29.398Z,10.09
2022-11-22T10:46:06.622Z,10.46
2022-11-22T10:49:06.365Z,10.31
2022-11-22T10:51:56.982Z,10.24
2022-11-22T10:54:46.614Z,10.51
2022-11-22T10:57:34.222Z,10.58
2022-11-22T11:00:26.228Z,10.54
2022-11-22T11:03:20.823Z,10.52
2022-11-22T11:07:04.791Z,10.45
2022-11-22T11:12:52.918Z,10.73
2022-11-22T11:15:25.241Z,10.58
2022-11-22T11:18:18.275Z,10.70
2022-11-22T11:20:47.677Z,10.99
2022-11-22T11:23:16.198Z,10.61
2022-11-22T11:25:45.129Z,10.73
2022-11-22T11:28:19.636Z,11.15
2022-11-22T11:30:49.155Z,10.79
2022-11-22T11:33:38.426Z,10.50
2022-11-22T11:36:23.209Z,10.53
2022-11-22T11:38:58.819Z,10.71
2022-11-22T11:41:30.883Z,10.44
2022-11-22T11:44:03.791Z,10.69
2022-11-22T11:46:45.626Z,10.58
2022-11-22T11:49:17.564Z,10.48
2022-11-22T11:51:44.275Z,10.42
2022-11-22T11:54:27.135Z,10.23
2022-11-22T11:57:05.067Z,10.51
2022-11-22T11:59:37.965Z,10.49
2022-11-22T12:02:11.185Z,10.47
2022-11-22T12:04:58.958Z,10.46
2022-11-22T12:07:27.959Z,10.09
2022-11-22T12:09:56.841Z,10.39
2022-11-22T12:12:46.075Z,10.44
2022-11-22T12:15:37.967Z,10.69
2022-11-22T12:18:14.177Z,10.99
2022-11-22T12:20:51.435Z,11.03
2022-11-22T12:23:24.856Z,10.70
2022-11-22T12:25:55.080Z,10.41
2022-11-22T12:28:24.622Z,10.54
2022-11-22T12:31:07.341Z,10.44
2022-11-22T12:33:41.287Z,11.03
2022-11-22T12:36:16.521Z,11.17
2022-11-22T12:38:45.276Z,10.73
2022-11-22T12:41:17.228Z,10.68
2022-11-22T12:43:53.771Z,10.89
2022-11-22T12:46:28.134Z,10.80
2022-11-22T12:48:58.962Z,10.65
2022-11-22T12:51:36.340Z,10.99
2022-11-22T12:54:08.485Z,11.12
2022-11-22T12:56:48.699Z,11.24
2022-11-22T12:59:21.921Z,11.05
2022-11-22T13:01:56.979Z,11.13
2022-11-22T13:04:31.961Z,11.25
2022-11-22T13:07:15.587Z,11.05
2022-11-22T13:09:57.679Z,11.24
2022-11-22T13:12:31.237Z,11.22
2022-11-22T13:14:59.048Z,10.96
2022-11-22T13:17:27.312Z,10.81
2022-11-22T13:20:17.125Z,10.88
2022-11-22T13:22:57.038Z,10.79
2022-11-22T13:25:31.163Z,10.95
2022-11-22T13:28:00.865Z,10.88
2022-11-22T13:30:29.662Z,10.67
2022-11-22T13:32:59.065Z,10.76
2022-11-22T13:35:38.598Z,10.99
2022-11-22T13:38:15.444Z,10.88
2022-11-22T13:40:47.109Z,11.31
2022-11-22T13:43:21.220Z,10.94
2022-11-22T13:45:59.673Z,11.16
2022-11-22T13:48:40.384Z,11.32
2022-11-22T13:51:12.905Z,11.11
2022-11-22T13:53:47.939Z,11.31
2022-11-22T13:56:15.927Z,11.20
2022-11-22T13:58:51.144Z,11.03
2022-11-22T14:01:36.846Z,11.35
2022-11-22T14:04:15.957Z,11.60
2022-11-22T14:06:49.281Z,11.56
2022-11-22T14:09:32.046Z,11.50
2022-11-22T14:12:01.981Z,11.45
2022-11-22T14:14:55.165Z,11.24
2022-11-22T14:17:43.959Z,11.18
2022-11-22T14:20:24.302Z,11.00
2022-11-22T14:23:42.239Z,11.36
2022-11-22T14:26:14.999Z,11.42
2022-11-22T14:29:12.991Z,11.29
2022-11-22T14:31:40.017Z,11.00
2022-11-22T14:34:19.073Z,11.47
2022-11-22T14:37:07.036Z,11.51
2022-11-22T14:39:47.564Z,11.36
2022-11-22T14:42:47.563Z,11.35
2022-11-22T14:45:36.349Z,11.26
2022-11-22T14:48:29.269Z,11.64
2022-11-22T14:51:04.843Z,11.44
2022-11-22T14:53:44.364Z,11.51
2022-11-22T14:56:28.253Z,11.62
2022-11-22T14:59:18.153Z,11.46
2022-11-22T15:01:48.137Z,11.66
2022-11-22T15:09:13.160Z,11.72
2022-11-22T15:09:21.285Z,11.29
2022-11-22T15:10:37.656Z,11.18
2022-11-22T15:13:12.373Z,11.64
2022-11-22T15:59:16.885Z,11.62
2022-11-22T16:01:44.025Z,11.55
2022-11-22T16:04:21.324Z,11.29
2022-11-22T16:06:49.004Z,11.79
2022-11-22T16:09:23.724Z,11.66
2022-11-22T16:11:54.333Z,11.53
2022-11-22T16:14:44.730Z,11.45
2022-11-22T16:17:28.404Z,11.27
2022-11-22T16:20:24.537Z,11.64
2022-11-22T16:23:03.531Z,11.44
2022-11-22T16:25:34.883Z,11.58
2022-11-22T16:28:19.077Z,11.65
2022-11-22T16:30:46.275Z,11.50
2022-11-22T16:33:13.245Z,11.37
2022-11-22T16:35:40.068Z,11.84
2022-11-22T16:38:10.828Z,11.62
2022-11-22T16:40:42.973Z,11.63
2022-11-22T16:43:17.934Z,11.62
2022-11-22T16:45:45.062Z,11.54
2022-11-22T16:48:30.826Z,11.34
2022-11-22T16:51:00.041Z,11.18
2022-11-22T16:53:29.215Z,11.11
2022-11-22T16:55:56.066Z,11.50
2022-11-22T16:58:23.814Z,11.19
2022-11-22T17:00:51.240Z,11.49
2022-11-22T17:03:20.311Z,11.37
2022-11-22T17:05:47.480Z,11.26
2022-11-22T17:08:17.028Z,11.41
2022-11-22T17:10:48.335Z,11.34
2022-11-22T17:13:25.426Z,11.57
2022-11-22T17:15:56.195Z,11.52
2022-11-22T17:18:23.089Z,11.69
2022-11-22T17:20:50.090Z,11.63
2022-11-22T17:23:30.500Z,11.46
2022-11-22T17:25:57.182Z,11.37
2022-11-22T17:28:24.052Z,11.15
2022-11-22T17:30:51.787Z,11.52
2022-11-22T17:33:18.546Z,11.78
2022-11-22T17:35:47.976Z,11.52
2022-11-22T17:38:15.004Z,11.52
2022-11-22T17:40:41.861Z,11.36
2022-11-22T17:43:10.377Z,11.40
2022-11-22T17:45:43.738Z,11.61
2022-11-22T17:48:11.634Z,11.47
2022-11-22T17:50:39.197Z,11.49
2022-11-22T17:53:06.585Z,11.51
2022-11-22T17:55:48.299Z,11.55
2022-11-22T17:58:20.234Z,11.59
2022-11-22T18:00:46.901Z,11.45
2022-11-22T18:03:14.002Z,11.54
2022-11-22T18:05:44.046Z,11.52
2022-11-22T18:08:11.142Z,11.48
2022-11-22T18:10:39.184Z,11.31
2022-11-22T18:13:20.767Z,11.34
2022-11-22T18:16:03.267Z,11.62
2022-11-22T18:21:22.112Z,11.34
2022-11-22T18:23:48.959Z,11.70
2022-11-22T18:26:38.177Z,11.80
2022-11-22T18:29:38.593Z,11.68
2022-11-22T18:31:52.594Z,11.63
2022-11-22T18:34:20.354Z,11.21
2022-11-22T18:37:04.297Z,11.56
2022-11-22T18:42:22.541Z,11.63
2022-11-22T18:44:49.305Z,11.41
2022-11-22T18:47:17.256Z,11.45
2022-11-22T18:49:44.233Z,11.16
2022-11-22T18:52:13.506Z,11.18
2022-11-22T18:54:43.791Z,11.38
2022-11-22T18:57:10.642Z,11.54
2022-11-22T18:59:37.650Z,11.31
2022-11-22T19:02:04.646Z,11.47
2022-11-22T19:04:31.629Z,11.21
2022-11-22T19:06:59.691Z,11.28
2022-11-22T19:09:26.463Z,11.47
2022-11-22T19:11:58.409Z,11.07
2022-11-22T19:14:29.171Z,11.47
2022-11-22T19:16:56.311Z,11.23
2022-11-22T19:19:24.354Z,11.38
2022-11-22T19:21:51.130Z,11.63
2022-11-22T19:24:17.820Z,11.32
2022-11-22T19:26:44.855Z,11.28
2022-11-22T19:29:11.830Z,11.37
2022-11-22T19:31:38.968Z,11.60
2022-11-22T19:34:05.933Z,11.65
2022-11-22T19:36:34.318Z,11.20
2022-11-22T19:39:05.539Z,11.35
2022-11-22T19:41:33.021Z,11.64
2022-11-22T19:44:00.316Z,11.23
2022-11-22T19:46:28.043Z,11.22
2022-11-22T19:48:56.839Z,11.43
2022-11-22T19:51:24.688Z,11.44
2022-11-22T19:53:58.908Z,11.32
2022-11-22T19:56:29.691Z,11.69
2022-11-22T19:58:57.929Z,11.50
2022-11-22T20:01:26.562Z,11.22
2022-11-22T20:03:57.047Z,11.23
2022-11-22T20:06:26.999Z,11.40
2022-11-22T20:08:53.873Z,10.81
2022-11-22T20:11:26.572Z,10.86
2022-11-22T20:13:53.427Z,11.18
2022-11-22T20:16:24.176Z,11.12
2022-11-22T20:18:58.916Z,11.64
2022-11-22T20:21:27.471Z,11.22
2022-11-22T20:23:55.364Z,11.67
2022-11-22T20:26:23.088Z,11.19
2022-11-22T20:28:55.348Z,11.28
2022-11-22T20:31:22.986Z,11.52
2022-11-22T20:33:53.893Z,11.48
2022-11-22T20:36:24.526Z,11.34
2022-11-22T20:38:52.376Z,11.67
2022-11-22T20:41:21.565Z,11.32
2022-11-22T20:43:49.709Z,11.32
2022-11-22T20:46:19.220Z,11.28
2022-11-22T20:48:47.218Z,11.58
2022-11-22T20:51:16.329Z,11.61
2022-11-22T20:53:43.806Z,11.35
2022-11-22T20:56:11.608Z,11.33
2022-11-22T20:58:38.703Z,11.44
2022-11-22T21:01:07.321Z,11.10
2022-11-22T21:03:34.899Z,11.12
2022-11-22T21:06:02.986Z,11.33
2022-11-22T21:08:30.162Z,11.49
2022-11-22T21:11:14.421Z,11.64
2022-11-22T21:13:42.480Z,11.75
2022-11-22T21:16:23.758Z,11.74
2022-11-22T21:18:55.682Z,11.97
2022-11-22T21:21:23.576Z,11.74
2022-11-22T21:23:52.658Z,11.69
2022-11-22T21:26:20.650Z,11.54
2022-11-22T21:28:47.799Z,11.70
2022-11-22T21:31:15.269Z,11.64
2022-11-22T21:33:42.830Z,11.67
2022-11-22T21:36:10.314Z,11.88
2022-11-22T21:38:38.671Z,11.91
2022-11-22T21:41:38.071Z,11.80
2022-11-22T21:43:57.070Z,11.39
2022-11-22T21:46:25.381Z,11.75
2022-11-22T21:48:52.621Z,12.04
2022-11-22T21:51:19.508Z,12.09
2022-11-22T21:53:46.339Z,11.30
2022-11-22T21:56:13.512Z,11.33
2022-11-22T21:58:40.530Z,11.85
2022-11-22T22:01:13.579Z,11.63
2022-11-22T22:03:41.381Z,11.62
2022-11-22T22:06:08.416Z,11.33
2022-11-22T22:08:35.589Z,11.95
2022-11-22T22:11:05.529Z,12.35
2022-11-22T22:13:32.512Z,12.04
2022-11-22T22:16:01.453Z,12.16
2022-11-22T22:18:36.878Z,12.02
2022-11-22T22:21:05.913Z,11.98
2022-11-22T22:23:34.294Z,12.02
2022-11-22T22:26:02.230Z,11.60
2022-11-22T22:28:30.439Z,11.98
2022-11-22T22:31:11.157Z,11.84
2022-11-22T22:33:39.874Z,12.39
2022-11-22T22:36:08.079Z,12.07
2022-11-22T22:38:35.165Z,12.06
2022-11-22T22:41:04.175Z,12.03
2022-11-22T22:43:36.768Z,12.00
2022-11-22T22:46:06.665Z,11.92
2022-11-22T22:48:34.444Z,11.94
2022-11-22T22:51:11.348Z,11.95
2022-11-22T22:53:38.523Z,11.84
2022-11-22T22:56:07.142Z,11.99
2022-11-22T22:58:34.344Z,11.87
2022-11-22T23:01:21.246Z,12.04
2022-11-22T23:03:49.380Z,12.31
2022-11-22T23:06:16.357Z,12.22
2022-11-22T23:08:46.044Z,11.72
2022-11-22T23:11:13.525Z,12.06
2022-11-22T23:13:42.082Z,11.58
2022-11-22T23:16:11.201Z,11.63
2022-11-22T23:18:40.501Z,11.87
2022-11-22T23:21:08.886Z,11.74
2022-11-22T23:23:53.113Z,12.05
2022-11-22T23:26:36.124Z,11.82
2022-11-22T23:29:12.288Z,11.69
2022-11-22T23:31:39.361Z,11.82
2022-11-22T23:34:06.387Z,11.36
2022-11-22T23:36:39.017Z,12.01
2022-11-22T23:39:07.750Z,11.90
2022-11-22T23:41:34.834Z,12.27
2022-11-22T23:44:01.634Z,11.88
2022-11-22T23:46:29.151Z,11.99
2022-11-22T23:48:58.260Z,11.79
2022-11-22T23:51:26.433Z,11.64
2022-11-22T23:54:01.035Z,11.64
2022-11-22T23:56:29.102Z,11.77
2022-11-22T23:58:57.927Z,11.74
